sensor_id;sensor_type;location;lat;lon;timestamp;pressure;altitude;pressure_sealevel;temperature;humidity
76374;BME280;65197;50.164;8.012;2024-03-23T00:53:46;71856.84;;;-144.13;71.91
76374;BME280;65197;50.164;8.012;2024-03-23T00:56:12;71835.41;;;-144.13;70.89
76374;BME280;65197;50.164;8.012;2024-03-23T00:58:37;71839.31;;;-144.13;70.88
76374;BME280;65197;50.164;8.012;2024-03-23T01:01:03;71829.56;;;-144.13;71.12
76374;BME280;65197;50.164;8.012;2024-03-23T01:03:31;71798.34;;;-144.13;71.30
76374;BME280;65197;50.164;8.012;2024-03-23T01:06:00;71794.47;;;-144.13;71.08
76374;BME280;65197;50.164;8.012;2024-03-23T01:08:26;71765.22;;;-144.13;70.69
76374;BME280;65197;50.164;8.012;2024-03-23T01:10:59;71751.56;;;-144.13;70.65
76374;BME280;65197;50.164;8.012;2024-03-23T01:13:25;71732.06;;;-144.13;70.20
76374;BME280;65197;50.164;8.012;2024-03-23T01:15:52;71763.25;;;-144.13;71.16
76374;BME280;65197;50.164;8.012;2024-03-23T01:18:18;71751.56;;;-144.13;71.09
76374;BME280;65197;50.164;8.012;2024-03-23T01:20:43;71765.22;;;-144.13;71.49
76374;BME280;65197;50.164;8.012;2024-03-23T01:23:09;71732.06;;;-144.13;70.26
76374;BME280;65197;50.164;8.012;2024-03-23T01:25:35;71724.25;;;-144.13;70.07
76374;BME280;65197;50.164;8.012;2024-03-23T01:28:01;71728.16;;;-144.13;70.27
76374;BME280;65197;50.164;8.012;2024-03-23T01:30:26;71728.16;;;-144.13;69.69
76374;BME280;65197;50.164;8.012;2024-03-23T01:32:52;71732.06;;;-144.13;69.45
76374;BME280;65197;50.164;8.012;2024-03-23T01:35:17;71722.31;;;-144.13;69.36
76374;BME280;65197;50.164;8.012;2024-03-23T01:37:43;71712.56;;;-144.13;69.21
76374;BME280;65197;50.164;8.012;2024-03-23T01:40:09;71695.00;;;-144.13;68.69
76374;BME280;65197;50.164;8.012;2024-03-23T01:42:34;71695.00;;;-144.13;68.53
76374;BME280;65197;50.164;8.012;2024-03-23T01:45:00;71685.28;;;-144.13;68.81
76374;BME280;65197;50.164;8.012;2024-03-23T01:47:25;71696.97;;;-144.13;69.96
76374;BME280;65197;50.164;8.012;2024-03-23T01:49:51;71704.75;;;-144.13;69.95
76374;BME280;65197;50.164;8.012;2024-03-23T01:52:17;71683.31;;;-144.13;69.11
76374;BME280;65197;50.164;8.012;2024-03-23T01:54:43;71695.00;;;-144.13;69.54
76374;BME280;65197;50.164;8.012;2024-03-23T01:57:10;71675.50;;;-144.13;69.46
76374;BME280;65197;50.164;8.012;2024-03-23T01:59:35;71702.81;;;-144.13;70.09
76374;BME280;65197;50.164;8.012;2024-03-23T02:02:01;71661.88;;;-144.13;69.67
76374;BME280;65197;50.164;8.012;2024-03-23T02:04:27;71681.38;;;-144.13;70.80
76374;BME280;65197;50.164;8.012;2024-03-23T02:06:52;71712.56;;;-144.13;71.69
76374;BME280;65197;50.164;8.012;2024-03-23T02:09:18;71679.41;;;-144.13;72.22
76374;BME280;65197;50.164;8.012;2024-03-23T02:11:43;71675.50;;;-144.13;71.75
76374;BME280;65197;50.164;8.012;2024-03-23T02:14:09;71642.38;;;-144.13;70.22
76374;BME280;65197;50.164;8.012;2024-03-23T02:16:34;71661.88;;;-144.13;71.43
76374;BME280;65197;50.164;8.012;2024-03-23T02:19:00;71661.88;;;-144.13;71.11
76374;BME280;65197;50.164;8.012;2024-03-23T02:21:25;71656.03;;;-144.13;70.92
76374;BME280;65197;50.164;8.012;2024-03-23T02:23:52;71638.47;;;-144.13;70.52
76374;BME280;65197;50.164;8.012;2024-03-23T02:26:18;71642.38;;;-144.13;71.11
76374;BME280;65197;50.164;8.012;2024-03-23T02:28:43;71634.56;;;-144.13;70.85
76374;BME280;65197;50.164;8.012;2024-03-23T02:31:09;71652.13;;;-144.13;72.21
76374;BME280;65197;50.164;8.012;2024-03-23T02:33:34;71673.56;;;-144.13;73.33
76374;BME280;65197;50.164;8.012;2024-03-23T02:36:03;71628.72;;;-144.13;71.89
76374;BME280;65197;50.164;8.012;2024-03-23T02:38:29;71646.28;;;-144.13;73.13
76374;BME280;65197;50.164;8.012;2024-03-23T02:40:54;71632.63;;;-144.13;72.21
76374;BME280;65197;50.164;8.012;2024-03-23T02:43:20;71657.97;;;-144.13;73.78
76374;BME280;65197;50.164;8.012;2024-03-23T02:45:46;71646.28;;;-144.13;73.11
76374;BME280;65197;50.164;8.012;2024-03-23T02:48:11;71706.72;;;-144.13;75.17
76374;BME280;65197;50.164;8.012;2024-03-23T02:50:36;71712.56;;;-144.13;75.86
76374;BME280;65197;50.164;8.012;2024-03-23T02:53:02;71724.25;;;-144.13;75.90
76374;BME280;65197;50.164;8.012;2024-03-23T02:55:28;71708.66;;;-144.13;76.29
76374;BME280;65197;50.164;8.012;2024-03-23T02:57:53;71802.25;;;-144.13;78.31
76374;BME280;65197;50.164;8.012;2024-03-23T03:00:19;71854.91;;;-144.13;79.44
76374;BME280;65197;50.164;8.012;2024-03-23T03:02:44;71849.06;;;-144.13;79.32
76374;BME280;65197;50.164;8.012;2024-03-23T03:05:10;71845.16;;;-144.13;80.45
76374;BME280;65197;50.164;8.012;2024-03-23T03:07:36;71890.00;;;-144.13;81.17
76374;BME280;65197;50.164;8.012;2024-03-23T03:10:04;71837.34;;;-144.13;78.94
76374;BME280;65197;50.164;8.012;2024-03-23T03:12:31;71864.66;;;-144.13;80.41
76374;BME280;65197;50.164;8.012;2024-03-23T03:14:57;71847.09;;;-144.13;80.11
76374;BME280;65197;50.164;8.012;2024-03-23T03:17:22;71852.97;;;-144.13;79.27
76374;BME280;65197;50.164;8.012;2024-03-23T03:19:48;71868.56;;;-144.13;80.63
76374;BME280;65197;50.164;8.012;2024-03-23T03:22:14;71956.31;;;-144.13;81.13
76374;BME280;65197;50.164;8.012;2024-03-23T03:24:39;71997.25;;;-144.13;80.13
76374;BME280;65197;50.164;8.012;2024-03-23T03:27:05;72071.34;;;-144.13;80.61
76374;BME280;65197;50.164;8.012;2024-03-23T03:29:32;72075.25;;;-144.13;80.12
76374;BME280;65197;50.164;8.012;2024-03-23T03:32:01;72059.66;;;-144.13;79.82
76374;BME280;65197;50.164;8.012;2024-03-23T03:34:27;72102.56;;;-144.13;80.94
76374;BME280;65197;50.164;8.012;2024-03-23T03:36:52;72083.06;;;-144.13;80.50
76374;BME280;65197;50.164;8.012;2024-03-23T03:39:18;72129.84;;;-144.13;82.02
76374;BME280;65197;50.164;8.012;2024-03-23T03:41:43;72090.84;;;-144.13;80.47
76374;BME280;65197;50.164;8.012;2024-03-23T03:44:09;72114.25;;;-144.13;80.92
76374;BME280;65197;50.164;8.012;2024-03-23T03:46:34;72118.16;;;-144.13;79.81
76374;BME280;65197;50.164;8.012;2024-03-23T03:49:00;72125.94;;;-144.13;79.88
76374;BME280;65197;50.164;8.012;2024-03-23T03:51:25;72114.25;;;-144.13;79.55
76374;BME280;65197;50.164;8.012;2024-03-23T03:53:51;72153.25;;;-144.13;80.45
76374;BME280;65197;50.164;8.012;2024-03-23T03:56:16;72131.81;;;-144.13;79.60
76374;BME280;65197;50.164;8.012;2024-03-23T03:58:42;72161.06;;;-144.13;79.70
76374;BME280;65197;50.164;8.012;2024-03-23T04:01:07;72166.91;;;-144.13;80.61
76374;BME280;65197;50.164;8.012;2024-03-23T04:03:33;72161.06;;;-144.13;81.08
76374;BME280;65197;50.164;8.012;2024-03-23T04:05:59;72139.59;;;-144.13;80.96
76374;BME280;65197;50.164;8.012;2024-03-23T04:08:24;72168.84;;;-144.13;81.78
76374;BME280;65197;50.164;8.012;2024-03-23T04:10:50;72100.59;;;-144.13;79.98
76374;BME280;65197;50.164;8.012;2024-03-23T04:13:15;72122.06;;;-144.13;80.87
76374;BME280;65197;50.164;8.012;2024-03-23T04:15:42;72065.50;;;-144.13;78.88
76374;BME280;65197;50.164;8.012;2024-03-23T04:18:07;72075.25;;;-144.13;79.71
76374;BME280;65197;50.164;8.012;2024-03-23T04:20:33;72122.06;;;-144.13;80.73
76374;BME280;65197;50.164;8.012;2024-03-23T04:22:59;72114.25;;;-144.13;80.75
76374;BME280;65197;50.164;8.012;2024-03-23T04:25:25;72172.75;;;-144.13;83.05
76374;BME280;65197;50.164;8.012;2024-03-23T04:27:50;72207.84;;;-144.13;83.30
76374;BME280;65197;50.164;8.012;2024-03-23T04:30:16;72178.59;;;-144.13;81.71
76374;BME280;65197;50.164;8.012;2024-03-23T04:32:43;72200.06;;;-144.13;82.01
76374;BME280;65197;50.164;8.012;2024-03-23T04:35:09;72176.66;;;-144.13;80.70
76374;BME280;65197;50.164;8.012;2024-03-23T04:37:38;72203.94;;;-144.13;81.62
76374;BME280;65197;50.164;8.012;2024-03-23T04:40:07;72178.59;;;-144.13;81.26
76374;BME280;65197;50.164;8.012;2024-03-23T04:42:33;72200.06;;;-144.13;82.11
76374;BME280;65197;50.164;8.012;2024-03-23T04:44:59;72184.44;;;-144.13;81.90
76374;BME280;65197;50.164;8.012;2024-03-23T04:47:25;72200.06;;;-144.13;81.29
76374;BME280;65197;50.164;8.012;2024-03-23T04:49:50;72141.56;;;-144.13;80.68
76374;BME280;65197;50.164;8.012;2024-03-23T04:52:17;72164.94;;;-144.13;80.98
76374;BME280;65197;50.164;8.012;2024-03-23T04:54:42;72168.84;;;-144.13;81.39
76374;BME280;65197;50.164;8.012;2024-03-23T04:57:08;72258.56;;;-144.13;83.16
76374;BME280;65197;50.164;8.012;2024-03-23T04:59:34;72227.34;;;-144.13;82.34
76374;BME280;65197;50.164;8.012;2024-03-23T05:01:59;72285.84;;;-144.13;82.91
76374;BME280;65197;50.164;8.012;2024-03-23T05:04:25;72309.25;;;-144.13;82.58
76374;BME280;65197;50.164;8.012;2024-03-23T05:06:51;72338.50;;;-144.13;83.16
76374;BME280;65197;50.164;8.012;2024-03-23T05:09:16;72297.56;;;-144.13;81.67
76374;BME280;65197;50.164;8.012;2024-03-23T05:11:42;72301.47;;;-144.13;81.83
76374;BME280;65197;50.164;8.012;2024-03-23T05:14:07;72346.31;;;-144.13;82.13
76374;BME280;65197;50.164;8.012;2024-03-23T05:16:33;72317.06;;;-144.13;81.85
76374;BME280;65197;50.164;8.012;2024-03-23T05:18:59;72336.56;;;-144.13;81.45
76374;BME280;65197;50.164;8.012;2024-03-23T05:21:25;72391.16;;;-144.13;82.32
76374;BME280;65197;50.164;8.012;2024-03-23T05:23:50;72389.22;;;-144.13;82.70
76374;BME280;65197;50.164;8.012;2024-03-23T05:26:16;72395.06;;;-144.13;83.50
76374;BME280;65197;50.164;8.012;2024-03-23T05:28:42;72359.97;;;-144.13;82.11
76374;BME280;65197;50.164;8.012;2024-03-23T05:31:08;72344.38;;;-144.13;80.51
76374;BME280;65197;50.164;8.012;2024-03-23T05:33:35;72359.97;;;-144.13;81.77
76374;BME280;65197;50.164;8.012;2024-03-23T05:36:01;72398.97;;;-144.13;82.76
76374;BME280;65197;50.164;8.012;2024-03-23T05:38:27;72391.16;;;-144.13;82.48
76374;BME280;65197;50.164;8.012;2024-03-23T05:41:00;72395.06;;;-144.13;80.92
76374;BME280;65197;50.164;8.012;2024-03-23T05:43:26;72406.78;;;-144.13;80.68
76374;BME280;65197;50.164;8.012;2024-03-23T05:46:00;72449.66;;;-144.13;82.15
76374;BME280;65197;50.164;8.012;2024-03-23T05:48:30;72426.28;;;-144.13;80.71
76374;BME280;65197;50.164;8.012;2024-03-23T05:50:56;72441.88;;;-144.13;81.06
76374;BME280;65197;50.164;8.012;2024-03-23T05:53:23;72443.81;;;-144.13;82.23
76374;BME280;65197;50.164;8.012;2024-03-23T05:55:49;72402.88;;;-144.13;80.07
76374;BME280;65197;50.164;8.012;2024-03-23T05:58:18;72449.66;;;-144.13;80.61
76374;BME280;65197;50.164;8.012;2024-03-23T06:00:45;72453.56;;;-144.13;80.97
76374;BME280;65197;50.164;8.012;2024-03-23T06:03:11;72422.38;;;-144.13;79.98
76374;BME280;65197;50.164;8.012;2024-03-23T06:05:37;72463.31;;;-144.13;80.92
76374;BME280;65197;50.164;8.012;2024-03-23T06:08:03;72441.88;;;-144.13;80.66
76374;BME280;65197;50.164;8.012;2024-03-23T06:10:29;72510.13;;;-144.13;82.73
76374;BME280;65197;50.164;8.012;2024-03-23T06:12:54;72535.47;;;-144.13;83.12
76374;BME280;65197;50.164;8.012;2024-03-23T06:15:20;72502.31;;;-144.13;82.58
76374;BME280;65197;50.164;8.012;2024-03-23T06:17:45;72539.38;;;-144.13;82.66
76374;BME280;65197;50.164;8.012;2024-03-23T06:20:12;72506.22;;;-144.13;81.86
76374;BME280;65197;50.164;8.012;2024-03-23T06:22:38;72547.19;;;-144.13;82.30
76374;BME280;65197;50.164;8.012;2024-03-23T06:25:03;72523.78;;;-144.13;81.71
76374;BME280;65197;50.164;8.012;2024-03-23T06:27:29;72519.88;;;-144.13;82.04
76374;BME280;65197;50.164;8.012;2024-03-23T06:29:55;72535.47;;;-144.13;80.79
76374;BME280;65197;50.164;8.012;2024-03-23T06:32:20;72554.97;;;-144.13;81.44
76374;BME280;65197;50.164;8.012;2024-03-23T06:34:46;72562.78;;;-144.13;81.94
76374;BME280;65197;50.164;8.012;2024-03-23T06:37:12;72570.59;;;-144.13;81.88
76374;BME280;65197;50.164;8.012;2024-03-23T06:39:38;72551.09;;;-144.13;80.38
76374;BME280;65197;50.164;8.012;2024-03-23T06:42:04;72547.19;;;-144.13;79.88
76374;BME280;65197;50.164;8.012;2024-03-23T06:44:30;72572.53;;;-144.13;81.22
76374;BME280;65197;50.164;8.012;2024-03-23T06:46:56;72578.38;;;-144.13;81.38
76374;BME280;65197;50.164;8.012;2024-03-23T06:49:22;72554.97;;;-144.13;81.08
76374;BME280;65197;50.164;8.012;2024-03-23T06:51:48;72558.88;;;-144.13;80.78
76374;BME280;65197;50.164;8.012;2024-03-23T06:54:14;72558.88;;;-144.13;80.70
76374;BME280;65197;50.164;8.012;2024-03-23T06:56:40;72539.38;;;-144.13;79.88
76374;BME280;65197;50.164;8.012;2024-03-23T06:59:05;72512.09;;;-144.13;79.43
76374;BME280;65197;50.164;8.012;2024-03-23T07:01:31;72519.88;;;-144.13;78.87
76374;BME280;65197;50.164;8.012;2024-03-23T07:03:56;72515.97;;;-144.13;78.66
76374;BME280;65197;50.164;8.012;2024-03-23T07:06:22;72523.78;;;-144.13;78.32
76374;BME280;65197;50.164;8.012;2024-03-23T07:08:47;72582.28;;;-144.13;79.46
76374;BME280;65197;50.164;8.012;2024-03-23T07:11:22;72527.69;;;-144.13;78.61
76374;BME280;65197;50.164;8.012;2024-03-23T07:13:52;72496.47;;;-144.13;77.18
76374;BME280;65197;50.164;8.012;2024-03-23T07:16:19;72488.69;;;-144.13;77.95
76374;BME280;65197;50.164;8.012;2024-03-23T07:18:45;72496.47;;;-144.13;77.55
76374;BME280;65197;50.164;8.012;2024-03-23T07:21:11;72547.19;;;-144.13;78.72
76374;BME280;65197;50.164;8.012;2024-03-23T07:23:36;72525.72;;;-144.13;78.23
76374;BME280;65197;50.164;8.012;2024-03-23T07:26:04;72554.97;;;-144.13;79.86
76374;BME280;65197;50.164;8.012;2024-03-23T07:28:33;72506.22;;;-144.13;78.39
76374;BME280;65197;50.164;8.012;2024-03-23T07:33:32;72556.94;;;-144.13;80.02
76374;BME280;65197;50.164;8.012;2024-03-23T07:35:58;72504.28;;;-144.13;78.84
76374;BME280;65197;50.164;8.012;2024-03-23T07:38:28;72508.19;;;-144.13;78.99
76374;BME280;65197;50.164;8.012;2024-03-23T07:41:10;72465.28;;;-144.13;77.41
76374;BME280;65197;50.164;8.012;2024-03-23T07:43:37;72535.47;;;-144.13;78.10
76374;BME280;65197;50.164;8.012;2024-03-23T07:46:03;72574.50;;;-144.13;78.51
76374;BME280;65197;50.164;8.012;2024-03-23T07:48:31;72551.09;;;-144.13;77.99
76374;BME280;65197;50.164;8.012;2024-03-23T07:53:23;72566.69;;;-144.13;77.96
76374;BME280;65197;50.164;8.012;2024-03-23T07:55:54;72508.19;;;-144.13;78.14
76374;BME280;65197;50.164;8.012;2024-03-23T07:58:20;72430.16;;;-144.13;75.06
76374;BME280;65197;50.164;8.012;2024-03-23T08:00:45;72445.78;;;-144.13;76.78
76374;BME280;65197;50.164;8.012;2024-03-23T08:03:10;72469.19;;;-144.13;76.47
76374;BME280;65197;50.164;8.012;2024-03-23T08:05:36;72346.31;;;-144.13;74.54
76374;BME280;65197;50.164;8.012;2024-03-23T08:08:01;72293.66;;;-144.13;72.08
76374;BME280;65197;50.164;8.012;2024-03-23T08:10:27;72367.75;;;-144.13;72.02
76374;BME280;65197;50.164;8.012;2024-03-23T08:12:52;72348.25;;;-144.13;71.96
76374;BME280;65197;50.164;8.012;2024-03-23T08:15:18;72402.88;;;-144.13;72.27
76374;BME280;65197;50.164;8.012;2024-03-23T08:17:43;72418.47;;;-144.13;74.05
76374;BME280;65197;50.164;8.012;2024-03-23T08:20:09;72410.66;;;-144.13;73.56
76374;BME280;65197;50.164;8.012;2024-03-23T08:22:34;72416.53;;;-144.13;74.28
76374;BME280;65197;50.164;8.012;2024-03-23T08:25:00;72161.06;;;-144.13;71.12
76374;BME280;65197;50.164;8.012;2024-03-23T08:27:26;72239.06;;;-144.13;68.69
76374;BME280;65197;50.164;8.012;2024-03-23T08:29:52;72324.88;;;-144.13;69.90
76374;BME280;65197;50.164;8.012;2024-03-23T08:32:17;72293.66;;;-144.13;69.78
76374;BME280;65197;50.164;8.012;2024-03-23T08:34:43;72219.56;;;-144.13;68.92
76374;BME280;65197;50.164;8.012;2024-03-23T08:37:08;72293.66;;;-144.13;67.34
76374;BME280;65197;50.164;8.012;2024-03-23T08:39:34;72320.97;;;-144.13;68.78
76374;BME280;65197;50.164;8.012;2024-03-23T08:41:59;72211.75;;;-144.13;65.46
76374;BME280;65197;50.164;8.012;2024-03-23T08:44:25;72116.19;;;-144.13;62.04
76374;BME280;65197;50.164;8.012;2024-03-23T08:46:50;72153.25;;;-144.13;63.55
76374;BME280;65197;50.164;8.012;2024-03-23T08:49:16;72149.34;;;-144.13;63.93
76374;BME280;65197;50.164;8.012;2024-03-23T08:51:41;71946.56;;;-144.13;59.17
76374;BME280;65197;50.164;8.012;2024-03-23T08:54:07;71829.56;;;-144.13;57.08
76374;BME280;65197;50.164;8.012;2024-03-23T08:56:32;71710.63;;;-144.13;51.83
76374;BME280;65197;50.164;8.012;2024-03-23T08:58:58;71882.22;;;-144.13;52.71
76374;BME280;65197;50.164;8.012;2024-03-23T09:01:23;71960.19;;;-144.13;55.41
76374;BME280;65197;50.164;8.012;2024-03-23T09:03:49;72036.25;;;-144.13;54.72
76374;BME280;65197;50.164;8.012;2024-03-23T09:06:14;72159.09;;;-144.13;56.66
76374;BME280;65197;50.164;8.012;2024-03-23T09:08:40;72184.44;;;-144.13;56.16
76374;BME280;65197;50.164;8.012;2024-03-23T09:11:07;72135.69;;;-144.13;57.08
76374;BME280;65197;50.164;8.012;2024-03-23T09:13:37;72032.34;;;-144.13;55.30
76374;BME280;65197;50.164;8.012;2024-03-23T09:16:04;72094.75;;;-144.13;53.23
76374;BME280;65197;50.164;8.012;2024-03-23T09:18:32;72069.41;;;-144.13;55.65
76374;BME280;65197;50.164;8.012;2024-03-23T09:20:58;72086.94;;;-144.13;53.94
76374;BME280;65197;50.164;8.012;2024-03-23T09:23:23;71960.19;;;-144.13;52.46
76374;BME280;65197;50.164;8.012;2024-03-23T09:25:49;72005.06;;;-144.13;50.46
76374;BME280;65197;50.164;8.012;2024-03-23T09:28:14;72001.16;;;-144.13;52.26
76374;BME280;65197;50.164;8.012;2024-03-23T09:30:40;71973.84;;;-144.13;52.49
76374;BME280;65197;50.164;8.012;2024-03-23T09:33:09;71925.09;;;-144.13;50.46
76374;BME280;65197;50.164;8.012;2024-03-23T09:35:38;72032.34;;;-144.13;51.74
76374;BME280;65197;50.164;8.012;2024-03-23T09:38:04;71973.84;;;-144.13;50.65
76374;BME280;65197;50.164;8.012;2024-03-23T09:40:30;71903.66;;;-144.13;51.20
76374;BME280;65197;50.164;8.012;2024-03-23T09:42:56;71934.84;;;-144.13;48.61
76374;BME280;65197;50.164;8.012;2024-03-23T09:45:27;71934.84;;;-144.13;47.09
76374;BME280;65197;50.164;8.012;2024-03-23T09:47:52;72040.16;;;-144.13;47.41
76374;BME280;65197;50.164;8.012;2024-03-23T09:50:18;72092.81;;;-144.13;49.50
76374;BME280;65197;50.164;8.012;2024-03-23T09:52:45;71969.94;;;-144.13;48.08
76374;BME280;65197;50.164;8.012;2024-03-23T09:55:12;71969.94;;;-144.13;47.67
76374;BME280;65197;50.164;8.012;2024-03-23T09:57:39;71973.84;;;-144.13;48.51
76374;BME280;65197;50.164;8.012;2024-03-23T10:00:05;72040.16;;;-144.13;48.23
76374;BME280;65197;50.164;8.012;2024-03-23T10:02:31;72414.56;;;-144.13;52.32
76374;BME280;65197;50.164;8.012;2024-03-23T10:04:58;72309.25;;;-144.13;52.55
76374;BME280;65197;50.164;8.012;2024-03-23T10:07:23;72375.56;;;-144.13;56.51
76374;BME280;65197;50.164;8.012;2024-03-23T10:09:49;72348.25;;;-144.13;55.74
76374;BME280;65197;50.164;8.012;2024-03-23T10:12:19;72391.16;;;-144.13;56.30
76374;BME280;65197;50.164;8.012;2024-03-23T10:14:44;72359.97;;;-144.13;55.86
76374;BME280;65197;50.164;8.012;2024-03-23T10:17:22;72289.75;;;-144.13;53.84
76374;BME280;65197;50.164;8.012;2024-03-23T10:19:50;72250.75;;;-144.13;52.31
76374;BME280;65197;50.164;8.012;2024-03-23T10:22:20;72215.66;;;-144.13;53.09
76374;BME280;65197;50.164;8.012;2024-03-23T10:24:47;72188.34;;;-144.13;51.65
76374;BME280;65197;50.164;8.012;2024-03-23T10:27:21;72192.25;;;-144.13;50.92
76374;BME280;65197;50.164;8.012;2024-03-23T10:29:49;72235.16;;;-144.13;50.56
76374;BME280;65197;50.164;8.012;2024-03-23T10:32:18;72196.16;;;-144.13;51.33
76374;BME280;65197;50.164;8.012;2024-03-23T10:34:45;72207.84;;;-144.13;50.68
76374;BME280;65197;50.164;8.012;2024-03-23T10:37:10;72231.25;;;-144.13;51.14
76374;BME280;65197;50.164;8.012;2024-03-23T10:39:38;72209.81;;;-144.13;50.65
76374;BME280;65197;50.164;8.012;2024-03-23T10:42:08;72026.50;;;-144.13;50.48
76374;BME280;65197;50.164;8.012;2024-03-23T10:44:34;71812.00;;;-144.13;49.90
76374;BME280;65197;50.164;8.012;2024-03-23T10:47:03;71755.47;;;-144.13;47.56
76374;BME280;65197;50.164;8.012;2024-03-23T10:49:34;71829.56;;;-144.13;46.53
76374;BME280;65197;50.164;8.012;2024-03-23T10:52:03;71817.84;;;-144.13;45.92
76374;BME280;65197;50.164;8.012;2024-03-23T10:54:30;72024.56;;;-144.13;46.69
76374;BME280;65197;50.164;8.012;2024-03-23T10:57:13;71981.66;;;-144.13;48.13
76374;BME280;65197;50.164;8.012;2024-03-23T10:59:40;72178.59;;;-144.13;50.84
76374;BME280;65197;50.164;8.012;2024-03-23T11:02:05;72184.44;;;-144.13;51.35
76374;BME280;65197;50.164;8.012;2024-03-23T11:04:37;72176.66;;;-144.13;51.16
76374;BME280;65197;50.164;8.012;2024-03-23T11:09:52;72116.19;;;-144.13;51.29
76374;BME280;65197;50.164;8.012;2024-03-23T11:14:51;71864.66;;;-144.13;48.16
76374;BME280;65197;50.164;8.012;2024-03-23T11:17:21;71774.97;;;-144.13;45.77
76374;BME280;65197;50.164;8.012;2024-03-23T11:19:54;71728.16;;;-144.13;45.52
76374;BME280;65197;50.164;8.012;2024-03-23T11:22:43;71636.53;;;-144.13;44.71
76374;BME280;65197;50.164;8.012;2024-03-23T11:27:48;71700.88;;;-144.13;43.73
76374;BME280;65197;50.164;8.012;2024-03-23T11:30:18;71759.34;;;-144.13;43.17
76374;BME280;65197;50.164;8.012;2024-03-23T11:32:45;71673.56;;;-144.13;44.40
76374;BME280;65197;50.164;8.012;2024-03-23T11:35:34;71626.78;;;-144.13;43.83
76374;BME280;65197;50.164;8.012;2024-03-23T11:40:48;71981.66;;;-144.13;43.12
76374;BME280;65197;50.164;8.012;2024-03-23T11:43:18;71821.75;;;-144.13;43.76
76374;BME280;65197;50.164;8.012;2024-03-23T11:45:47;71800.31;;;-144.13;42.62
76374;BME280;65197;50.164;8.012;2024-03-23T11:48:15;71868.56;;;-144.13;43.42
76374;BME280;65197;50.164;8.012;2024-03-23T11:50:44;71909.50;;;-144.13;42.62
76374;BME280;65197;50.164;8.012;2024-03-23T11:53:21;71981.66;;;-144.13;43.41
76374;BME280;65197;50.164;8.012;2024-03-23T11:55:58;71966.06;;;-144.13;43.71
76374;BME280;65197;50.164;8.012;2024-03-23T11:58:25;71971.91;;;-144.13;44.42
76374;BME280;65197;50.164;8.012;2024-03-23T12:00:55;72030.41;;;-144.13;45.28
76374;BME280;65197;50.164;8.012;2024-03-23T12:03:21;72059.66;;;-144.13;45.12
76374;BME280;65197;50.164;8.012;2024-03-23T12:05:57;71950.44;;;-144.13;43.20
76374;BME280;65197;50.164;8.012;2024-03-23T12:08:25;71891.97;;;-144.13;44.15
76374;BME280;65197;50.164;8.012;2024-03-23T12:11:17;71973.84;;;-144.13;44.68
76374;BME280;65197;50.164;8.012;2024-03-23T12:13:44;71880.25;;;-144.13;44.43
76374;BME280;65197;50.164;8.012;2024-03-23T12:16:18;71930.94;;;-144.13;44.10
76374;BME280;65197;50.164;8.012;2024-03-23T12:18:48;71973.84;;;-144.13;44.34
76374;BME280;65197;50.164;8.012;2024-03-23T12:21:14;72026.50;;;-144.13;45.16
76374;BME280;65197;50.164;8.012;2024-03-23T12:23:40;72042.09;;;-144.13;43.93
76374;BME280;65197;50.164;8.012;2024-03-23T12:26:06;72192.25;;;-144.13;45.53
76374;BME280;65197;50.164;8.012;2024-03-23T12:28:33;72301.47;;;-144.13;48.24
76374;BME280;65197;50.164;8.012;2024-03-23T12:30:58;72317.06;;;-144.13;50.76
76374;BME280;65197;50.164;8.012;2024-03-23T12:33:24;72437.97;;;-144.13;55.76
76374;BME280;65197;50.164;8.012;2024-03-23T12:35:50;72539.38;;;-144.13;61.04
76374;BME280;65197;50.164;8.012;2024-03-23T12:38:16;72582.28;;;-144.13;65.67
76374;BME280;65197;50.164;8.012;2024-03-23T12:40:42;72515.97;;;-144.13;63.93
76374;BME280;65197;50.164;8.012;2024-03-23T12:43:11;72543.28;;;-144.13;63.76
76374;BME280;65197;50.164;8.012;2024-03-23T12:45:36;72504.28;;;-144.13;64.29
76374;BME280;65197;50.164;8.012;2024-03-23T12:48:02;72492.56;;;-144.13;65.52
76374;BME280;65197;50.164;8.012;2024-03-23T12:50:27;72463.31;;;-144.13;64.98
76374;BME280;65197;50.164;8.012;2024-03-23T12:52:53;72371.66;;;-144.13;65.92
76374;BME280;65197;50.164;8.012;2024-03-23T12:55:18;72400.91;;;-144.13;63.80
76374;BME280;65197;50.164;8.012;2024-03-23T12:57:45;72424.31;;;-144.13;64.41
76374;BME280;65197;50.164;8.012;2024-03-23T13:00:11;72447.72;;;-144.13;64.21
76374;BME280;65197;50.164;8.012;2024-03-23T13:02:38;72476.97;;;-144.13;65.11
76374;BME280;65197;50.164;8.012;2024-03-23T13:05:04;72496.47;;;-144.13;65.54
76374;BME280;65197;50.164;8.012;2024-03-23T13:07:30;72461.38;;;-144.13;66.05
76374;BME280;65197;50.164;8.012;2024-03-23T13:09:55;72476.97;;;-144.13;66.53
76374;BME280;65197;50.164;8.012;2024-03-23T13:12:22;72426.28;;;-144.13;65.48
76374;BME280;65197;50.164;8.012;2024-03-23T13:14:48;72299.50;;;-144.13;64.74
76374;BME280;65197;50.164;8.012;2024-03-23T13:17:13;72168.84;;;-144.13;64.53
76374;BME280;65197;50.164;8.012;2024-03-23T13:19:39;72268.31;;;-144.13;63.50
76374;BME280;65197;50.164;8.012;2024-03-23T13:22:05;72338.50;;;-144.13;66.46
76374;BME280;65197;50.164;8.012;2024-03-23T13:24:31;72410.66;;;-144.13;68.36
76374;BME280;65197;50.164;8.012;2024-03-23T13:26:57;72426.28;;;-144.13;66.34
76374;BME280;65197;50.164;8.012;2024-03-23T13:29:23;72295.59;;;-144.13;72.33
76374;BME280;65197;50.164;8.012;2024-03-23T13:31:50;72133.75;;;-144.13;61.90
76374;BME280;65197;50.164;8.012;2024-03-23T13:34:16;72143.50;;;-144.13;58.52
76374;BME280;65197;50.164;8.012;2024-03-23T13:36:45;72227.34;;;-144.13;60.83
76374;BME280;65197;50.164;8.012;2024-03-23T13:39:11;72235.16;;;-144.13;60.35
76374;BME280;65197;50.164;8.012;2024-03-23T13:41:44;72338.50;;;-144.13;62.67
76374;BME280;65197;50.164;8.012;2024-03-23T13:44:11;72274.16;;;-144.13;61.42
76374;BME280;65197;50.164;8.012;2024-03-23T13:46:38;72200.06;;;-144.13;60.18